createdAt,value
2022-09-21T00:00:13.170Z,7.90
2022-09-21T00:01:34.709Z,7.30
2022-09-21T00:02:55.915Z,6.83
2022-09-21T00:04:17.290Z,6.52
2022-09-21T00:05:38.558Z,11.03
2022-09-21T00:06:59.637Z,15.77
2022-09-21T00:08:20.781Z,8.82
2022-09-21T00:09:41.756Z,9.63
2022-09-21T00:11:03.892Z,6.78
2022-09-21T00:12:25.366Z,9.28
2022-09-21T00:13:46.546Z,8.39
2022-09-21T00:15:09.173Z,6.04
2022-09-21T00:16:30.289Z,6.39
2022-09-21T00:17:52.242Z,8.11
2022-09-21T00:19:13.480Z,6.55
2022-09-21T00:20:35.053Z,6.70
2022-09-21T00:21:56.123Z,7.06
2022-09-21T00:23:17.526Z,6.90
2022-09-21T00:24:38.768Z,7.64
2022-09-21T00:26:13.101Z,7.66
2022-09-21T00:27:34.254Z,7.76
2022-09-21T00:28:56.941Z,7.28
2022-09-21T00:31:39.500Z,5.48
2022-09-21T00:33:00.731Z,5.38
2022-09-21T00:34:22.154Z,6.74
2022-09-21T00:35:43.094Z,7.87
2022-09-21T00:37:04.089Z,6.16
2022-09-21T00:38:25.433Z,7.54
2022-09-21T00:39:46.718Z,6.07
2022-09-21T00:41:07.878Z,5.83
2022-09-21T00:42:32.118Z,6.64
2022-09-21T00:44:19.621Z,6.62
2022-09-21T00:45:42.382Z,5.28
2022-09-21T00:47:09.018Z,5.00
2022-09-21T00:48:29.990Z,6.05
2022-09-21T00:49:51.664Z,5.92
2022-09-21T00:51:12.863Z,4.62
2022-09-21T00:52:36.863Z,5.07
2022-09-21T00:54:01.638Z,4.86
2022-09-21T00:56:39.324Z,6.56
2022-09-21T00:58:04.403Z,4.85
2022-09-21T00:59:30.143Z,5.03
2022-09-21T01:00:49.286Z,4.33
2022-09-21T01:02:10.859Z,5.24
2022-09-21T01:03:31.927Z,4.42
2022-09-21T01:04:53.131Z,4.46
2022-09-21T01:06:16.068Z,4.47
2022-09-21T01:07:39.587Z,6.14
2022-09-21T01:09:00.624Z,4.49
2022-09-21T01:10:25.879Z,5.49
2022-09-21T01:12:02.590Z,4.34
2022-09-21T01:13:36.060Z,4.29
2022-09-21T01:15:06.554Z,4.85
2022-09-21T01:16:34.618Z,4.54
2022-09-21T01:18:25.023Z,4.93
2022-09-21T01:19:58.501Z,4.83
2022-09-21T01:21:24.569Z,5.11
2022-09-21T01:22:52.232Z,4.88
2022-09-21T01:24:20.406Z,5.77
2022-09-21T01:26:11.071Z,6.34
2022-09-21T01:27:50.674Z,4.99
2022-09-21T01:29:26.845Z,5.38
2022-09-21T01:30:49.246Z,5.81
2022-09-21T01:32:24.530Z,4.92
2022-09-21T01:33:47.970Z,5.66
2022-09-21T01:35:18.105Z,5.53
2022-09-21T01:36:39.512Z,4.62
2022-09-21T01:38:06.059Z,4.54
2022-09-21T01:39:27.150Z,5.11
2022-09-21T01:40:53.514Z,5.50
2022-09-21T01:42:14.919Z,6.03
2022-09-21T01:44:47.329Z,6.21
2022-09-21T01:46:12.455Z,4.91
2022-09-21T01:47:35.662Z,5.73
2022-09-21T01:48:59.659Z,5.31
2022-09-21T01:50:23.315Z,5.23
2022-09-21T01:51:47.707Z,4.84
2022-09-21T01:54:33.929Z,4.74
2022-09-21T01:57:16.414Z,5.46
2022-09-21T01:59:04.355Z,5.13
2022-09-21T02:00:26.604Z,5.58
2022-09-21T02:01:51.253Z,3.81
2022-09-21T02:03:15.758Z,4.85
2022-09-21T02:04:37.063Z,5.12
2022-09-21T02:05:58.469Z,5.47
2022-09-21T02:07:19.583Z,6.81
2022-09-21T02:08:40.643Z,4.26
2022-09-21T02:10:02.149Z,5.68
2022-09-21T02:12:18.723Z,3.49
2022-09-21T02:14:58.944Z,4.14
2022-09-21T02:16:27.375Z,5.34
2022-09-21T02:17:58.525Z,4.38
2022-09-21T02:19:52.364Z,6.05
2022-09-21T02:21:23.600Z,6.36
2022-09-21T02:24:05.264Z,6.48
2022-09-21T02:27:06.331Z,5.58
2022-09-21T02:30:16.031Z,5.43
2022-09-21T02:33:09.510Z,5.04
2022-09-21T02:34:37.292Z,4.04
2022-09-21T02:37:28.002Z,4.49
2022-09-21T02:38:54.060Z,5.69
2022-09-21T02:40:30.808Z,5.18
2022-09-21T02:41:58.648Z,4.41
2022-09-21T02:43:23.270Z,4.04
2022-09-21T02:44:53.434Z,4.08
2022-09-21T02:47:44.251Z,4.56
2022-09-21T02:49:09.023Z,4.48
2022-09-21T02:50:36.736Z,5.08
2022-09-21T02:51:59.444Z,4.09
2022-09-21T02:53:23.464Z,3.64
2022-09-21T02:54:46.961Z,4.23
2022-09-21T02:56:08.295Z,4.32
2022-09-21T02:57:29.285Z,3.53
2022-09-21T02:58:51.752Z,3.76
2022-09-21T03:00:14.779Z,3.43
2022-09-21T03:01:35.878Z,4.45
2022-09-21T03:02:57.165Z,3.71
2022-09-21T03:04:18.535Z,3.48
2022-09-21T03:05:39.696Z,3.53
2022-09-21T03:07:00.924Z,3.76
2022-09-21T03:08:22.216Z,3.96
2022-09-21T03:09:43.708Z,3.84
2022-09-21T03:11:05.450Z,3.62
2022-09-21T03:12:26.436Z,3.47
2022-09-21T03:13:47.677Z,3.99
2022-09-21T03:15:09.646Z,3.32
2022-09-21T03:16:30.682Z,3.36
2022-09-21T03:17:51.904Z,3.57
2022-09-21T03:19:12.887Z,3.53
2022-09-21T03:20:35.586Z,3.38
2022-09-21T03:21:56.843Z,4.22
2022-09-21T03:23:18.081Z,3.36
2022-09-21T03:24:39.104Z,3.99
2022-09-21T03:26:00.775Z,3.38
2022-09-21T03:27:22.216Z,3.32
2022-09-21T03:28:43.438Z,4.46
2022-09-21T03:30:05.596Z,3.78
2022-09-21T03:32:50.170Z,4.36
2022-09-21T03:34:11.144Z,4.09
2022-09-21T03:35:32.351Z,4.25
2022-09-21T03:36:53.840Z,3.02
2022-09-21T03:38:14.953Z,3.57
2022-09-21T03:39:36.288Z,4.14
2022-09-21T03:40:57.335Z,3.76
2022-09-21T03:42:18.575Z,5.99
2022-09-21T03:43:39.809Z,3.95
2022-09-21T03:45:01.301Z,4.50
2022-09-21T03:46:23.649Z,3.21
2022-09-21T03:47:44.716Z,4.16
2022-09-21T03:49:06.226Z,3.27
2022-09-21T03:50:28.377Z,3.33
2022-09-21T03:51:49.389Z,4.36
2022-09-21T03:53:11.790Z,3.64
2022-09-21T03:54:33.035Z,4.42
2022-09-21T03:55:54.456Z,3.96
2022-09-21T03:57:15.768Z,5.23
2022-09-21T03:58:37.415Z,5.09
2022-09-21T03:59:58.346Z,4.39
2022-09-21T04:01:19.337Z,4.38
2022-09-21T04:02:40.474Z,4.21
2022-09-21T04:04:02.234Z,4.63
2022-09-21T04:05:25.030Z,4.49
2022-09-21T04:06:46.621Z,4.34
2022-09-21T04:08:08.028Z,3.44
2022-09-21T04:09:29.686Z,4.69
2022-09-21T04:10:51.136Z,3.34
2022-09-21T04:12:12.370Z,5.42
2022-09-21T04:13:33.784Z,4.46
2022-09-21T04:14:54.773Z,4.03
2022-09-21T04:16:16.228Z,4.79
2022-09-21T04:17:37.459Z,4.21
2022-09-21T04:18:59.130Z,5.63
2022-09-21T04:20:22.315Z,5.81
2022-09-21T04:23:05.723Z,4.22
2022-09-21T04:24:28.433Z,3.59
2022-09-21T04:25:51.547Z,5.07
2022-09-21T04:28:24.193Z,4.36
2022-09-21T04:29:47.451Z,3.72
2022-09-21T04:31:10.618Z,4.56
2022-09-21T04:32:32.125Z,4.04
2022-09-21T04:33:56.131Z,5.11
2022-09-21T04:35:20.553Z,4.33
2022-09-21T04:36:44.030Z,3.91
2022-09-21T04:38:06.827Z,3.14
2022-09-21T04:40:56.513Z,4.61
2022-09-21T04:42:18.530Z,3.84
2022-09-21T04:44:55.238Z,4.92
2022-09-21T04:46:18.838Z,3.79
2022-09-21T04:47:40.648Z,4.06
2022-09-21T04:49:01.852Z,4.32
2022-09-21T04:50:28.792Z,4.45
2022-09-21T04:51:49.876Z,3.78
2022-09-21T04:53:11.193Z,4.06
2022-09-21T04:54:32.255Z,3.62
2022-09-21T04:55:53.251Z,4.02
2022-09-21T04:57:14.702Z,4.57
2022-09-21T04:58:35.757Z,4.64
2022-09-21T04:59:57.031Z,4.19
2022-09-21T05:01:18.039Z,4.80
2022-09-21T05:02:39.756Z,5.41
2022-09-21T05:04:01.467Z,4.67
2022-09-21T05:05:24.119Z,3.87
2022-09-21T05:06:45.264Z,4.00
2022-09-21T05:08:06.783Z,3.74
2022-09-21T05:09:27.684Z,4.16
2022-09-21T05:10:49.112Z,4.07
2022-09-21T05:13:21.207Z,6.34
2022-09-21T05:14:42.924Z,4.53
2022-09-21T05:16:05.035Z,4.26
2022-09-21T05:17:26.523Z,3.34
2022-09-21T05:18:48.320Z,4.14
2022-09-21T05:20:10.074Z,6.15
2022-09-21T05:21:31.437Z,4.96
2022-09-21T05:22:52.837Z,6.41
2022-09-21T05:24:14.345Z,5.64
2022-09-21T05:25:35.743Z,4.09
2022-09-21T05:26:57.220Z,6.62
2022-09-21T05:28:19.087Z,5.51
2022-09-21T05:29:40.655Z,6.76
2022-09-21T05:31:17.923Z,6.28
2022-09-21T05:32:43.919Z,5.27
2022-09-21T05:34:18.149Z,4.81
2022-09-21T05:35:45.945Z,5.84
2022-09-21T05:38:22.953Z,5.52
2022-09-21T05:39:44.635Z,5.65
2022-09-21T05:41:07.595Z,5.43
2022-09-21T05:43:50.588Z,4.99
2022-09-21T05:46:30.402Z,6.46
2022-09-21T05:47:55.485Z,6.81
2022-09-21T05:49:19.547Z,6.10
2022-09-21T05:50:46.291Z,5.53
2022-09-21T05:52:17.415Z,8.29
2022-09-21T05:53:42.262Z,5.98
2022-09-21T05:56:50.118Z,5.14
2022-09-21T05:58:17.857Z,5.77
2022-09-21T05:59:58.028Z,5.65
2022-09-21T06:01:32.105Z,5.26
2022-09-21T06:03:11.506Z,4.68
2022-09-21T06:04:33.496Z,6.01
2022-09-21T06:05:55.241Z,5.72
2022-09-21T06:07:16.577Z,6.01
2022-09-21T06:08:40.308Z,6.18
2022-09-21T06:10:01.495Z,6.32
2022-09-21T06:11:22.795Z,4.78
2022-09-21T06:12:43.998Z,5.22
2022-09-21T06:14:05.553Z,5.58
2022-09-21T06:15:27.087Z,5.14
2022-09-21T06:16:48.529Z,5.36
2022-09-21T06:18:12.208Z,5.71
2022-09-21T06:19:33.314Z,5.28
2022-09-21T06:20:54.927Z,3.86
2022-09-21T06:22:16.225Z,4.36
2022-09-21T06:23:37.619Z,5.13
2022-09-21T06:25:00.194Z,5.59
2022-09-21T06:26:22.591Z,4.24
2022-09-21T06:27:45.633Z,5.46
2022-09-21T06:30:28.772Z,4.43
2022-09-21T06:31:50.654Z,4.47
2022-09-21T06:33:12.322Z,4.16
2022-09-21T06:34:33.725Z,4.03
2022-09-21T06:35:56.498Z,3.89
2022-09-21T06:37:17.802Z,4.40
2022-09-21T06:38:39.360Z,4.49
2022-09-21T06:40:01.482Z,4.37
2022-09-21T06:41:23.061Z,4.08
2022-09-21T06:42:45.441Z,4.17
2022-09-21T06:44:07.162Z,3.04
2022-09-21T06:45:30.650Z,3.03
2022-09-21T06:46:52.105Z,2.82
2022-09-21T06:48:13.474Z,2.68
2022-09-21T06:49:39.194Z,3.32
2022-09-21T06:51:02.990Z,3.03
2022-09-21T06:52:24.262Z,3.54
2022-09-21T06:53:45.230Z,3.32
2022-09-21T06:55:07.321Z,5.71
2022-09-21T06:56:29.702Z,6.20
2022-09-21T06:57:50.755Z,5.29
2022-09-21T06:59:12.186Z,9.81
2022-09-21T07:00:33.207Z,6.55
2022-09-21T07:01:54.563Z,4.81
2022-09-21T07:03:16.186Z,4.08
2022-09-21T07:04:37.323Z,5.92
2022-09-21T07:05:58.279Z,5.46
2022-09-21T07:07:19.810Z,5.18
2022-09-21T07:10:07.154Z,3.28
2022-09-21T07:11:28.710Z,3.24
2022-09-21T07:12:50.324Z,2.71
2022-09-21T07:14:11.267Z,3.72
2022-09-21T07:15:32.475Z,3.32
2022-09-21T07:16:53.494Z,2.76
2022-09-21T07:18:15.257Z,3.58
2022-09-21T07:19:36.589Z,2.86
2022-09-21T07:20:57.985Z,2.96
2022-09-21T07:22:19.381Z,3.06
2022-09-21T07:23:40.798Z,3.80
2022-09-21T07:26:35.214Z,3.09
2022-09-21T07:27:58.559Z,2.73
2022-09-21T07:30:41.152Z,1.78
2022-09-21T07:32:02.482Z,2.45
2022-09-21T07:33:24.902Z,1.79
2022-09-21T07:34:46.377Z,2.43
2022-09-21T07:36:07.759Z,3.12
2022-09-21T07:37:30.465Z,4.18
2022-09-21T07:38:52.111Z,2.18
2022-09-21T07:40:13.941Z,1.91
2022-09-21T07:41:35.852Z,2.35
2022-09-21T07:42:58.399Z,2.35
2022-09-21T07:44:19.968Z,1.64
2022-09-21T07:45:41.822Z,2.79
2022-09-21T07:47:03.491Z,4.67
2022-09-21T07:48:25.353Z,5.31
2022-09-21T07:49:46.895Z,4.80
2022-09-21T07:52:25.103Z,3.08
2022-09-21T07:55:08.141Z,2.90
2022-09-21T07:56:29.515Z,2.74
2022-09-21T07:57:50.884Z,2.33
2022-09-21T07:59:12.799Z,3.02
2022-09-21T08:00:35.089Z,2.62
2022-09-21T08:01:56.305Z,3.48
2022-09-21T08:03:17.685Z,2.74
2022-09-21T08:04:39.187Z,4.24
2022-09-21T08:06:00.846Z,3.94
2022-09-21T08:07:21.968Z,3.94
2022-09-21T08:08:43.341Z,3.19
2022-09-21T08:10:05.324Z,3.02
2022-09-21T08:11:28.014Z,3.65
2022-09-21T08:12:51.013Z,3.59
2022-09-21T08:14:12.040Z,3.09
2022-09-21T08:15:50.359Z,4.09
2022-09-21T12:24:49.854Z,7.69
2022-09-21T12:26:15.118Z,4.40
2022-09-21T12:27:44.214Z,4.47
2022-09-21T12:30:20.526Z,3.69
2022-09-21T12:31:48.878Z,4.29
2022-09-21T12:33:39.456Z,4.60
2022-09-21T12:35:02.534Z,3.63
2022-09-21T12:38:08.849Z,3.48
2022-09-21T12:39:53.659Z,4.11
2022-09-21T12:41:18.516Z,4.43
2022-09-21T12:42:50.494Z,5.08
2022-09-21T12:44:15.837Z,3.67
2022-09-21T12:45:48.632Z,3.83
2022-09-21T12:47:11.540Z,5.00
2022-09-21T12:49:59.331Z,4.56
2022-09-21T12:51:33.558Z,6.82
2022-09-21T12:52:55.448Z,4.61
2022-09-21T12:54:20.458Z,5.18
2022-09-21T12:57:23.591Z,3.98
2022-09-21T12:58:46.770Z,7.08
2022-09-21T13:01:54.854Z,5.54
2022-09-21T13:03:29.131Z,5.84
2022-09-21T13:05:22.887Z,6.02
2022-09-21T13:08:33.457Z,7.07
2022-09-21T13:09:54.839Z,3.58
2022-09-21T13:11:16.322Z,5.29
2022-09-21T13:12:39.539Z,3.74
2022-09-21T13:14:02.442Z,4.11
2022-09-21T13:15:26.442Z,3.26
2022-09-21T13:18:29.739Z,3.16
2022-09-21T13:20:02.765Z,5.26
2022-09-21T13:21:25.287Z,3.97
2022-09-21T13:22:47.312Z,4.13
2022-09-21T13:24:26.598Z,4.03
2022-09-21T13:26:05.489Z,4.77
2022-09-21T13:28:03.377Z,4.17
2022-09-21T13:29:30.323Z,5.08
2022-09-21T13:32:21.909Z,4.44
2022-09-21T13:36:09.114Z,3.47
2022-09-21T13:37:28.116Z,5.01
2022-09-21T13:38:56.280Z,5.78
2022-09-21T13:40:21.383Z,5.59
2022-09-21T13:42:02.447Z,4.70
2022-09-21T13:44:42.120Z,4.58
2022-09-21T13:46:05.525Z,5.27
2022-09-21T13:47:31.520Z,5.60
2022-09-21T13:48:52.852Z,4.67
2022-09-21T13:52:05.622Z,3.78
2022-09-21T13:53:34.781Z,5.44
2022-09-21T13:55:05.467Z,8.84
2022-09-21T13:56:26.750Z,4.76
2022-09-21T13:57:49.667Z,6.55
2022-09-21T14:00:40.264Z,5.19
2022-09-21T14:02:03.090Z,6.52
2022-09-21T14:04:38.664Z,5.23
2022-09-21T14:06:08.239Z,4.44
2022-09-21T14:07:30.230Z,7.16
2022-09-21T14:09:03.549Z,4.52
2022-09-21T14:10:25.129Z,6.81
2022-09-21T14:13:13.136Z,10.37
2022-09-21T14:14:36.606Z,7.65
2022-09-21T14:16:27.701Z,8.89
2022-09-21T14:18:13.591Z,6.82
2022-09-21T14:22:31.993Z,6.85
2022-09-21T14:24:19.479Z,5.66
2022-09-21T14:25:57.000Z,8.35
2022-09-21T14:27:22.987Z,7.60
2022-09-21T14:28:44.788Z,9.72
2022-09-21T14:30:23.410Z,5.93
2022-09-21T14:31:44.970Z,5.02
2022-09-21T14:33:25.875Z,5.19
2022-09-21T14:34:49.233Z,6.89
2022-09-21T14:36:12.345Z,4.11
2022-09-21T14:37:39.978Z,5.59
2022-09-21T14:39:03.244Z,7.03
2022-09-21T14:41:42.452Z,4.91
2022-09-21T14:43:12.392Z,6.08
2022-09-21T14:44:33.756Z,8.09
2022-09-21T14:46:01.745Z,4.83
2022-09-21T14:47:32.494Z,9.10
2022-09-21T14:50:32.774Z,9.74
2022-09-21T14:52:29.753Z,6.77
2022-09-21T14:54:01.004Z,6.89
2022-09-21T14:55:43.706Z,9.02
2022-09-21T14:57:23.733Z,6.31
2022-09-21T14:58:51.789Z,9.76
2022-09-21T15:00:23.991Z,4.60
2022-09-21T15:02:02.236Z,6.89
2022-09-21T15:03:45.689Z,7.41
2022-09-21T15:05:22.150Z,8.36
2022-09-21T15:06:59.327Z,7.33
2022-09-21T15:08:43.951Z,8.56
2022-09-21T15:10:26.133Z,8.52
2022-09-21T15:14:52.823Z,5.44
2022-09-21T15:16:24.522Z,10.27
2022-09-21T15:17:59.192Z,7.42
2022-09-21T15:19:24.840Z,7.63
2022-09-21T15:22:18.547Z,9.41
2022-09-21T15:23:40.141Z,6.34
2022-09-21T15:25:03.664Z,5.88
2022-09-21T15:27:45.739Z,9.31
2022-09-21T15:29:10.763Z,9.78
2022-09-21T15:31:53.109Z,6.18
2022-09-21T15:33:14.667Z,6.95
2022-09-21T15:34:35.994Z,5.99
2022-09-21T15:36:00.539Z,5.05
2022-09-21T15:37:22.114Z,6.42
2022-09-21T15:38:47.074Z,8.63
2022-09-21T15:40:18.345Z,11.03
2022-09-21T15:41:43.102Z,11.88
2022-09-21T15:43:18.634Z,6.53
2022-09-21T15:44:40.409Z,7.31
2022-09-21T15:46:03.656Z,5.23
2022-09-21T15:47:24.716Z,6.06
2022-09-21T15:48:46.598Z,5.68
2022-09-21T15:50:15.898Z,7.86
2022-09-21T15:51:38.385Z,5.19
2022-09-21T15:53:05.183Z,6.87
2022-09-21T15:54:32.984Z,6.46
2022-09-21T15:55:54.387Z,6.11
2022-09-21T15:57:39.255Z,4.63
2022-09-21T16:00:18.671Z,10.48
2022-09-21T16:01:44.331Z,11.17
2022-09-21T16:04:27.209Z,4.15
2022-09-21T16:05:50.847Z,5.79
2022-09-21T16:08:39.296Z,6.44
2022-09-21T16:10:01.646Z,5.77
2022-09-21T16:11:29.538Z,6.47
2022-09-21T16:12:54.832Z,4.93
2022-09-21T16:14:16.287Z,4.28
2022-09-21T16:15:38.285Z,5.18
2022-09-21T16:17:15.127Z,4.71
2022-09-21T16:18:49.538Z,6.32
2022-09-21T16:21:34.897Z,3.61
2022-09-21T16:23:05.669Z,3.76
2022-09-21T16:24:26.971Z,3.09
2022-09-21T16:25:55.590Z,3.82
2022-09-21T16:27:17.898Z,3.93
2022-09-21T16:28:40.690Z,4.17
2022-09-21T16:30:02.767Z,3.13
2022-09-21T16:31:30.374Z,3.30
2022-09-21T16:32:51.830Z,3.36
2022-09-21T16:35:32.396Z,2.75
2022-09-21T16:36:55.720Z,5.04
2022-09-21T16:38:16.866Z,3.64
2022-09-21T16:39:38.261Z,4.03
2022-09-21T16:41:01.072Z,3.57
2022-09-21T16:42:22.513Z,3.99
2022-09-21T16:43:44.096Z,8.42
2022-09-21T16:46:20.350Z,3.29
2022-09-21T16:47:41.869Z,5.33
2022-09-21T16:49:03.543Z,4.07
2022-09-21T16:50:25.525Z,4.09
2022-09-21T16:51:49.131Z,3.76
2022-09-21T16:53:10.133Z,4.01
2022-09-21T16:54:31.307Z,3.72
2022-09-21T16:55:53.387Z,4.22
2022-09-21T16:57:15.957Z,4.13
2022-09-21T16:58:37.072Z,4.52
2022-09-21T16:59:58.893Z,4.09
2022-09-21T17:01:20.543Z,3.59
2022-09-21T17:02:42.022Z,3.01
2022-09-21T17:04:03.432Z,3.86
2022-09-21T17:05:24.907Z,3.15
2022-09-21T17:06:46.520Z,3.22
2022-09-21T17:08:08.478Z,3.60
2022-09-21T17:09:33.905Z,3.79
2022-09-21T17:11:37.357Z,4.14
2022-09-21T17:12:58.896Z,3.23
2022-09-21T17:14:20.441Z,4.98
2022-09-21T17:15:44.690Z,3.87
2022-09-21T17:17:14.177Z,4.19
2022-09-21T17:18:35.121Z,3.61
2022-09-21T17:19:56.363Z,3.25
2022-09-21T17:21:17.964Z,3.31
2022-09-21T17:22:39.196Z,3.53
2022-09-21T17:24:01.376Z,3.33
2022-09-21T17:25:22.435Z,5.08
2022-09-21T17:26:44.099Z,3.96
2022-09-21T17:28:21.754Z,3.92
2022-09-21T17:29:44.231Z,4.94
2022-09-21T17:31:05.509Z,4.21
2022-09-21T17:32:27.089Z,4.39
2022-09-21T17:33:48.441Z,3.72
2022-09-21T17:35:31.788Z,3.31
2022-09-21T17:36:55.854Z,5.07
2022-09-21T17:38:17.066Z,4.57
2022-09-21T17:39:40.459Z,4.89
2022-09-21T17:41:03.265Z,3.28
2022-09-21T17:42:25.177Z,4.53
2022-09-21T17:44:05.596Z,2.86
2022-09-21T17:45:31.261Z,3.39
2022-09-21T17:48:18.837Z,5.57
2022-09-21T17:49:40.204Z,2.95
2022-09-21T17:51:01.977Z,4.08
2022-09-21T17:52:24.704Z,3.47
2022-09-21T17:53:46.474Z,3.79
2022-09-21T17:55:10.386Z,4.32
2022-09-21T17:58:23.635Z,3.50
2022-09-21T17:59:48.261Z,3.06
2022-09-21T18:01:32.122Z,3.41
2022-09-21T18:04:15.823Z,2.34
2022-09-21T18:05:40.090Z,3.16
2022-09-21T18:07:01.961Z,3.16
2022-09-21T18:08:24.002Z,3.99
2022-09-21T18:09:45.842Z,4.71
2022-09-21T18:11:25.641Z,2.72
2022-09-21T18:13:02.401Z,3.48
2022-09-21T18:14:46.824Z,4.27
2022-09-21T18:16:14.911Z,4.31
2022-09-21T18:17:40.237Z,4.19
2022-09-21T18:19:24.543Z,4.27
2022-09-21T18:20:58.547Z,3.44
2022-09-21T18:22:50.816Z,3.17
2022-09-21T18:24:31.412Z,3.16
2022-09-21T18:25:56.174Z,3.79
2022-09-21T18:27:17.946Z,3.65
2022-09-21T18:28:46.513Z,3.69
2022-09-21T18:30:10.773Z,3.18
2022-09-21T18:32:10.725Z,3.98
2022-09-21T18:33:47.353Z,3.22
2022-09-21T18:35:39.683Z,3.43
2022-09-21T18:38:34.381Z,3.09
2022-09-21T18:40:17.424Z,3.15
2022-09-21T18:43:05.086Z,3.67
2022-09-21T18:47:42.426Z,3.13
2022-09-21T18:49:14.320Z,3.21
2022-09-21T18:50:39.587Z,2.54
2022-09-21T18:52:10.550Z,4.61
2022-09-21T18:53:38.528Z,4.91
2022-09-21T18:54:59.965Z,2.82
2022-09-21T18:57:44.586Z,3.21
2022-09-21T18:59:06.319Z,3.91
2022-09-21T19:00:28.851Z,2.75
2022-09-21T19:01:52.178Z,2.98
2022-09-21T19:03:18.308Z,3.27
2022-09-21T19:04:43.282Z,3.77
2022-09-21T19:07:50.652Z,2.87
2022-09-21T19:09:18.575Z,4.32
2022-09-21T19:10:56.498Z,2.89
2022-09-21T19:12:36.529Z,2.85
2022-09-21T19:14:10.826Z,3.66
2022-09-21T19:17:22.549Z,3.51
2022-09-21T19:20:49.110Z,3.33
2022-09-21T19:22:20.310Z,2.52
2022-09-21T19:25:16.378Z,4.07
2022-09-21T19:27:13.673Z,4.30
2022-09-21T19:28:51.057Z,4.37
2022-09-21T19:30:14.041Z,3.20
2022-09-21T19:31:36.362Z,3.34
2022-09-21T19:32:57.999Z,3.18
2022-09-21T19:34:19.760Z,3.54
2022-09-21T19:36:54.908Z,2.83
2022-09-21T19:38:16.587Z,2.72
2022-09-21T19:39:38.261Z,2.46
2022-09-21T19:41:04.985Z,2.77
2022-09-21T19:44:26.063Z,4.26
2022-09-21T19:47:25.198Z,6.28
2022-09-21T19:48:47.872Z,5.02
2022-09-21T19:50:14.061Z,4.02
2022-09-21T19:51:49.523Z,4.02
2022-09-21T19:53:10.562Z,3.71
2022-09-21T19:54:32.175Z,4.61
2022-09-21T19:55:55.057Z,4.30
2022-09-21T19:57:19.247Z,3.91
2022-09-21T19:58:41.279Z,3.65
2022-09-21T20:00:04.797Z,3.12
2022-09-21T20:01:28.226Z,3.59
2022-09-21T20:03:04.438Z,3.48
2022-09-21T20:06:08.433Z,2.51
2022-09-21T20:09:15.040Z,5.98
2022-09-21T20:10:46.380Z,3.27
2022-09-21T20:12:25.456Z,3.19
2022-09-21T20:14:05.494Z,4.78
2022-09-21T20:16:55.395Z,2.62
2022-09-21T20:18:44.711Z,2.35
2022-09-21T20:20:16.390Z,3.31
2022-09-21T20:21:42.009Z,3.41
2022-09-21T20:23:04.134Z,3.64
2022-09-21T20:24:35.611Z,2.85
2022-09-21T20:26:05.501Z,3.67
2022-09-21T20:28:46.702Z,2.27
2022-09-21T20:30:11.935Z,3.05
2022-09-21T20:31:33.331Z,3.56
2022-09-21T20:34:16.299Z,1.76
2022-09-21T20:35:37.986Z,2.37
2022-09-21T20:37:02.681Z,2.98
2022-09-21T20:38:24.156Z,4.11
2022-09-21T20:39:45.595Z,3.15
2022-09-21T20:41:15.755Z,2.67
2022-09-21T20:42:36.810Z,3.81
2022-09-21T20:43:58.494Z,2.62
2022-09-21T20:46:30.577Z,2.92
2022-09-21T20:47:52.484Z,3.38
2022-09-21T20:49:13.714Z,2.22
2022-09-21T20:50:35.170Z,1.58
2022-09-21T20:51:56.373Z,1.73
2022-09-21T20:53:17.676Z,2.13
2022-09-21T20:54:39.047Z,1.73
2022-09-21T20:56:00.441Z,3.02
2022-09-21T20:57:22.129Z,3.08
2022-09-21T20:58:43.724Z,3.28
2022-09-21T21:00:06.804Z,2.80
2022-09-21T21:02:49.626Z,3.51
2022-09-21T21:04:10.877Z,4.13
2022-09-21T21:05:52.378Z,4.06
2022-09-21T21:07:14.122Z,4.45
2022-09-21T21:08:35.657Z,3.43
2022-09-21T21:09:57.065Z,3.04
2022-09-21T21:11:18.680Z,2.16
2022-09-21T21:12:40.736Z,2.62
2022-09-21T21:14:02.124Z,1.99
2022-09-21T21:15:23.230Z,2.36
2022-09-21T21:16:44.367Z,2.05
2022-09-21T21:18:08.914Z,2.97
2022-09-21T21:19:30.810Z,2.45
2022-09-21T21:20:52.276Z,3.77
2022-09-21T21:22:13.541Z,1.72
2022-09-21T21:23:35.586Z,2.08
2022-09-21T21:24:57.432Z,1.78
2022-09-21T21:26:18.860Z,3.24
2022-09-21T21:27:40.083Z,2.35
2022-09-21T21:29:01.918Z,1.84
2022-09-21T21:30:25.172Z,1.29
2022-09-21T21:31:46.806Z,1.91
2022-09-21T21:33:08.047Z,1.81
2022-09-21T21:34:30.069Z,1.20
2022-09-21T21:35:51.413Z,1.75
2022-09-21T21:37:13.138Z,2.51
2022-09-21T21:38:34.209Z,1.84
2022-09-21T21:39:55.575Z,2.44
2022-09-21T21:41:17.071Z,1.63
2022-09-21T21:42:38.265Z,1.59
2022-09-21T21:44:00.132Z,1.18
2022-09-21T21:46:32.472Z,1.81
2022-09-21T21:47:53.974Z,2.38
2022-09-21T21:49:15.271Z,1.27
2022-09-21T21:50:38.289Z,1.55
2022-09-21T21:53:20.122Z,2.37
2022-09-21T21:54:41.621Z,1.68
2022-09-21T21:56:07.517Z,1.41
2022-09-21T21:57:28.607Z,1.12
2022-09-21T21:58:53.110Z,1.44
2022-09-21T22:00:14.589Z,2.27
2022-09-21T22:01:36.819Z,1.47
2022-09-21T22:02:58.238Z,1.41
2022-09-21T22:04:19.415Z,2.26
2022-09-21T22:05:40.815Z,4.35
2022-09-21T22:07:01.893Z,4.12
2022-09-21T22:08:23.314Z,5.01
2022-09-21T22:09:44.607Z,2.48
2022-09-21T22:11:06.350Z,2.76
2022-09-21T22:12:27.833Z,2.37
2022-09-21T22:13:49.380Z,1.60
2022-09-21T22:15:10.940Z,2.23
2022-09-21T22:16:33.570Z,1.62
2022-09-21T22:17:55.155Z,2.19
2022-09-21T22:19:16.336Z,1.48
2022-09-21T22:20:40.774Z,1.29
2022-09-21T22:22:02.102Z,1.35
2022-09-21T22:23:23.674Z,1.45
2022-09-21T22:24:45.206Z,2.02
2022-09-21T22:26:10.058Z,1.67
2022-09-21T22:27:31.556Z,1.21
2022-09-21T22:28:55.485Z,1.87
2022-09-21T22:30:16.862Z,2.31
2022-09-21T22:31:40.639Z,2.01
2022-09-21T22:33:01.822Z,2.34
2022-09-21T22:34:22.986Z,1.98
2022-09-21T22:35:45.253Z,1.18
2022-09-21T22:37:06.242Z,2.29
2022-09-21T22:38:27.859Z,1.27
2022-09-21T22:39:49.296Z,2.08
2022-09-21T22:41:12.618Z,1.58
2022-09-21T22:42:33.728Z,3.06
2022-09-21T22:43:56.037Z,1.48
2022-09-21T22:45:17.416Z,5.07
2022-09-21T22:47:48.123Z,1.65
2022-09-21T22:49:09.673Z,3.09
2022-09-21T22:50:31.558Z,2.19
2022-09-21T22:51:52.634Z,4.17
2022-09-21T22:53:14.030Z,1.92
2022-09-21T22:54:35.604Z,1.50
2022-09-21T22:56:08.974Z,4.42
2022-09-21T22:57:30.095Z,2.07
2022-09-21T22:58:53.035Z,1.81
2022-09-21T23:00:15.249Z,2.41
2022-09-21T23:01:38.017Z,2.54
2022-09-21T23:02:59.052Z,1.48
2022-09-21T23:04:20.156Z,3.42
2022-09-21T23:05:41.843Z,2.31
2022-09-21T23:07:03.263Z,2.02
2022-09-21T23:08:24.818Z,1.48
2022-09-21T23:09:45.947Z,1.52
2022-09-21T23:11:12.493Z,2.54
2022-09-21T23:12:33.629Z,1.52
2022-09-21T23:13:55.613Z,1.57
2022-09-21T23:15:17.635Z,2.69
2022-09-21T23:16:39.232Z,2.27
2022-09-21T23:18:00.946Z,3.13
2022-09-21T23:19:22.480Z,2.61
2022-09-21T23:20:43.483Z,1.65
2022-09-21T23:22:05.010Z,1.63
2022-09-21T23:23:26.624Z,2.73
2022-09-21T23:24:47.609Z,1.94
2022-09-21T23:26:11.691Z,1.33
2022-09-21T23:27:33.031Z,2.70
2022-09-21T23:29:01.636Z,2.86
2022-09-21T23:30:23.198Z,6.63
2022-09-21T23:31:45.801Z,4.56
2022-09-21T23:33:07.352Z,5.08
2022-09-21T23:34:28.367Z,1.96
2022-09-21T23:35:50.526Z,1.44
2022-09-21T23:37:12.128Z,2.01
2022-09-21T23:38:34.029Z,2.51
2022-09-21T23:39:55.425Z,1.98
2022-09-21T23:41:19.284Z,1.82
2022-09-21T23:42:40.885Z,1.17
2022-09-21T23:44:02.100Z,1.19
2022-09-21T23:45:23.436Z,1.24
2022-09-21T23:46:45.028Z,1.51
2022-09-21T23:48:06.426Z,3.16
2022-09-21T23:49:27.572Z,1.90
2022-09-21T23:50:49.098Z,2.67
2022-09-21T23:52:10.077Z,1.47
2022-09-21T23:53:31.479Z,1.55
2022-09-21T23:54:52.658Z,1.59
2022-09-21T23:56:19.745Z,1.54
2022-09-21T23:57:41.140Z,1.87
2022-09-21T23:59:02.735Z,1.74
